sensor_id;sensor_type;location;lat;lon;timestamp;pressure;altitude;pressure_sealevel;temperature;humidity
74336;BME280;62755;-33.398;-70.572;2023-03-24T00:01:51;92999.28;;;30.21;23.46
74336;BME280;62755;-33.398;-70.572;2023-03-24T00:04:41;93005.34;;;29.99;23.95
74336;BME280;62755;-33.398;-70.572;2023-03-24T00:07:30;92976.50;;;29.61;23.87
74336;BME280;62755;-33.398;-70.572;2023-03-24T00:10:26;93006.78;;;29.66;24.59
74336;BME280;62755;-33.398;-70.572;2023-03-24T00:13:20;93015.22;;;29.74;24.70
74336;BME280;62755;-33.398;-70.572;2023-03-24T00:16:10;93020.53;;;29.72;24.48
74336;BME280;62755;-33.398;-70.572;2023-03-24T00:19:02;93017.03;;;29.92;24.56
74336;BME280;62755;-33.398;-70.572;2023-03-24T00:21:52;93024.06;;;29.93;24.12
74336;BME280;62755;-33.398;-70.572;2023-03-24T00:24:43;93023.16;;;29.77;24.39
74336;BME280;62755;-33.398;-70.572;2023-03-24T00:27:35;93029.16;;;29.55;24.84
74336;BME280;62755;-33.398;-70.572;2023-03-24T00:30:25;93035.59;;;29.71;24.33
74336;BME280;62755;-33.398;-70.572;2023-03-24T00:33:14;93033.28;;;29.62;24.62
74336;BME280;62755;-33.398;-70.572;2023-03-24T00:36:05;93041.28;;;29.52;25.22
74336;BME280;62755;-33.398;-70.572;2023-03-24T00:38:57;93039.03;;;29.50;24.70
74336;BME280;62755;-33.398;-70.572;2023-03-24T00:41:47;93033.09;;;29.33;24.87
74336;BME280;62755;-33.398;-70.572;2023-03-24T00:44:38;93041.19;;;29.18;24.89
74336;BME280;62755;-33.398;-70.572;2023-03-24T00:47:28;93041.59;;;29.09;24.50
74336;BME280;62755;-33.398;-70.572;2023-03-24T00:50:18;93054.09;;;28.97;24.79
74336;BME280;62755;-33.398;-70.572;2023-03-24T00:53:12;93057.19;;;28.94;24.73
74336;BME280;62755;-33.398;-70.572;2023-03-24T00:56:03;93058.38;;;28.85;24.51
74336;BME280;62755;-33.398;-70.572;2023-03-24T00:58:53;93056.00;;;28.76;24.63
74336;BME280;62755;-33.398;-70.572;2023-03-24T01:01:45;93052.25;;;28.60;25.80
74336;BME280;62755;-33.398;-70.572;2023-03-24T01:04:34;93058.97;;;28.65;26.39
74336;BME280;62755;-33.398;-70.572;2023-03-24T01:07:24;93062.59;;;28.73;26.76
74336;BME280;62755;-33.398;-70.572;2023-03-24T01:10:16;93067.28;;;28.91;26.25
74336;BME280;62755;-33.398;-70.572;2023-03-24T01:13:05;93058.97;;;28.78;26.23
74336;BME280;62755;-33.398;-70.572;2023-03-24T01:15:56;93055.78;;;28.61;25.76
74336;BME280;62755;-33.398;-70.572;2023-03-24T01:18:47;93054.75;;;28.45;26.41
74336;BME280;62755;-33.398;-70.572;2023-03-24T01:21:37;93049.63;;;28.68;26.41
74336;BME280;62755;-33.398;-70.572;2023-03-24T01:24:28;93053.34;;;28.71;25.77
74336;BME280;62755;-33.398;-70.572;2023-03-24T01:27:17;93051.97;;;28.77;25.75
74336;BME280;62755;-33.398;-70.572;2023-03-24T01:30:08;93057.09;;;28.99;24.97
74336;BME280;62755;-33.398;-70.572;2023-03-24T01:32:57;93050.63;;;28.97;25.30
74336;BME280;62755;-33.398;-70.572;2023-03-24T01:35:49;93048.03;;;28.59;26.72
74336;BME280;62755;-33.398;-70.572;2023-03-24T01:38:38;93052.34;;;28.55;27.15
74336;BME280;62755;-33.398;-70.572;2023-03-24T01:41:30;93054.44;;;28.49;26.92
74336;BME280;62755;-33.398;-70.572;2023-03-24T01:44:27;93056.28;;;28.28;27.20
74336;BME280;62755;-33.398;-70.572;2023-03-24T01:47:17;93057.94;;;28.18;27.20
74336;BME280;62755;-33.398;-70.572;2023-03-24T01:50:07;93043.06;;;27.70;27.37
74336;BME280;62755;-33.398;-70.572;2023-03-24T01:52:58;93060.84;;;27.88;27.25
74336;BME280;62755;-33.398;-70.572;2023-03-24T01:55:48;93058.56;;;28.11;27.44
74336;BME280;62755;-33.398;-70.572;2023-03-24T01:58:41;93063.78;;;28.14;27.25
74336;BME280;62755;-33.398;-70.572;2023-03-24T02:01:31;93057.94;;;28.18;26.86
74336;BME280;62755;-33.398;-70.572;2023-03-24T02:04:21;93052.25;;;28.29;26.80
74336;BME280;62755;-33.398;-70.572;2023-03-24T02:07:17;93049.28;;;28.27;26.46
74336;BME280;62755;-33.398;-70.572;2023-03-24T02:10:13;93053.91;;;28.19;26.69
74336;BME280;62755;-33.398;-70.572;2023-03-24T02:13:04;93055.72;;;28.16;27.48
74336;BME280;62755;-33.398;-70.572;2023-03-24T02:16:04;93061.84;;;28.41;26.55
74336;BME280;62755;-33.398;-70.572;2023-03-24T02:22:40;93054.81;;;27.90;28.90
74336;BME280;62755;-33.398;-70.572;2023-03-24T02:29:20;93055.25;;;27.94;28.14
74336;BME280;62755;-33.398;-70.572;2023-03-24T02:32:30;93050.66;;;28.02;28.25
74336;BME280;62755;-33.398;-70.572;2023-03-24T02:35:51;93049.91;;;27.64;28.84
74336;BME280;62755;-33.398;-70.572;2023-03-24T02:42:29;93042.16;;;27.62;29.13
74336;BME280;62755;-33.398;-70.572;2023-03-24T02:45:33;93051.28;;;27.95;28.48
74336;BME280;62755;-33.398;-70.572;2023-03-24T02:48:29;93052.84;;;28.09;27.67
74336;BME280;62755;-33.398;-70.572;2023-03-24T02:51:24;93035.69;;;27.78;28.28
74336;BME280;62755;-33.398;-70.572;2023-03-24T02:54:17;93057.66;;;27.84;28.47
74336;BME280;62755;-33.398;-70.572;2023-03-24T02:57:11;93057.44;;;27.63;28.78
74336;BME280;62755;-33.398;-70.572;2023-03-24T03:00:08;93052.38;;;27.67;27.67
74336;BME280;62755;-33.398;-70.572;2023-03-24T03:03:04;93054.75;;;27.58;27.83
74336;BME280;62755;-33.398;-70.572;2023-03-24T03:05:57;93052.16;;;27.65;27.38
74336;BME280;62755;-33.398;-70.572;2023-03-24T03:08:49;93041.88;;;27.47;27.89
74336;BME280;62755;-33.398;-70.572;2023-03-24T03:11:40;93039.94;;;27.42;27.92
74336;BME280;62755;-33.398;-70.572;2023-03-24T03:14:34;93045.09;;;27.27;27.41
74336;BME280;62755;-33.398;-70.572;2023-03-24T03:17:30;93049.91;;;27.45;27.26
74336;BME280;62755;-33.398;-70.572;2023-03-24T03:20:23;93049.94;;;27.21;27.49
74336;BME280;62755;-33.398;-70.572;2023-03-24T03:23:19;93044.84;;;27.49;27.67
74336;BME280;62755;-33.398;-70.572;2023-03-24T03:26:14;93041.78;;;27.34;27.31
74336;BME280;62755;-33.398;-70.572;2023-03-24T03:29:09;93033.63;;;27.23;27.76
74336;BME280;62755;-33.398;-70.572;2023-03-24T03:32:02;93040.16;;;27.44;27.92
74336;BME280;62755;-33.398;-70.572;2023-03-24T03:35:00;93042.59;;;27.48;27.57
74336;BME280;62755;-33.398;-70.572;2023-03-24T03:37:56;93043.34;;;27.48;27.41
74336;BME280;62755;-33.398;-70.572;2023-03-24T03:40:50;93028.97;;;27.37;27.37
74336;BME280;62755;-33.398;-70.572;2023-03-24T03:43:41;93032.19;;;27.17;27.07
74336;BME280;62755;-33.398;-70.572;2023-03-24T03:46:31;93036.97;;;27.16;27.52
74336;BME280;62755;-33.398;-70.572;2023-03-24T03:49:21;93038.69;;;26.95;27.77
74336;BME280;62755;-33.398;-70.572;2023-03-24T03:52:13;93032.28;;;26.87;27.25
74336;BME280;62755;-33.398;-70.572;2023-03-24T03:55:04;93025.91;;;26.73;27.27
74336;BME280;62755;-33.398;-70.572;2023-03-24T03:57:54;93034.25;;;26.92;27.55
74336;BME280;62755;-33.398;-70.572;2023-03-24T04:00:44;93021.25;;;27.11;27.11
74336;BME280;62755;-33.398;-70.572;2023-03-24T04:06:55;93018.66;;;27.19;26.91
74336;BME280;62755;-33.398;-70.572;2023-03-24T04:10:04;93018.16;;;27.20;26.82
74336;BME280;62755;-33.398;-70.572;2023-03-24T04:13:10;93023.25;;;27.35;26.71
74336;BME280;62755;-33.398;-70.572;2023-03-24T04:16:08;93016.88;;;27.45;26.38
74336;BME280;62755;-33.398;-70.572;2023-03-24T04:19:08;93012.81;;;27.46;26.48
74336;BME280;62755;-33.398;-70.572;2023-03-24T04:22:09;93011.81;;;27.49;26.54
74336;BME280;62755;-33.398;-70.572;2023-03-24T04:25:08;93008.22;;;27.54;26.68
74336;BME280;62755;-33.398;-70.572;2023-03-24T04:28:07;93005.97;;;27.34;27.27
74336;BME280;62755;-33.398;-70.572;2023-03-24T04:31:03;93000.47;;;27.34;27.04
74336;BME280;62755;-33.398;-70.572;2023-03-24T04:33:57;93007.75;;;27.50;27.17
74336;BME280;62755;-33.398;-70.572;2023-03-24T04:36:51;93004.50;;;27.33;27.17
74336;BME280;62755;-33.398;-70.572;2023-03-24T04:39:45;92983.50;;;27.49;27.61
74336;BME280;62755;-33.398;-70.572;2023-03-24T04:42:40;92985.28;;;27.65;27.36
74336;BME280;62755;-33.398;-70.572;2023-03-24T04:45:31;92985.41;;;27.72;27.21
74336;BME280;62755;-33.398;-70.572;2023-03-24T04:48:22;92989.28;;;27.83;26.85
74336;BME280;62755;-33.398;-70.572;2023-03-24T04:51:11;92988.22;;;27.86;27.31
74336;BME280;62755;-33.398;-70.572;2023-03-24T04:54:01;92982.56;;;27.78;26.62
74336;BME280;62755;-33.398;-70.572;2023-03-24T04:56:51;92991.59;;;27.78;26.77
74336;BME280;62755;-33.398;-70.572;2023-03-24T04:59:43;92988.53;;;27.82;26.83
74336;BME280;62755;-33.398;-70.572;2023-03-24T05:02:32;92986.00;;;27.84;26.35
74336;BME280;62755;-33.398;-70.572;2023-03-24T05:05:22;92987.72;;;27.68;26.51
74336;BME280;62755;-33.398;-70.572;2023-03-24T05:08:11;92983.78;;;27.64;25.72
74336;BME280;62755;-33.398;-70.572;2023-03-24T05:11:00;92986.34;;;27.43;26.54
74336;BME280;62755;-33.398;-70.572;2023-03-24T05:13:50;92986.91;;;27.36;25.69
74336;BME280;62755;-33.398;-70.572;2023-03-24T05:16:41;92963.81;;;27.21;25.51
74336;BME280;62755;-33.398;-70.572;2023-03-24T05:19:30;92984.38;;;27.38;25.58
74336;BME280;62755;-33.398;-70.572;2023-03-24T05:22:19;92987.91;;;27.57;25.42
74336;BME280;62755;-33.398;-70.572;2023-03-24T05:25:09;92972.34;;;27.41;25.17
74336;BME280;62755;-33.398;-70.572;2023-03-24T05:27:59;92983.94;;;27.53;25.80
74336;BME280;62755;-33.398;-70.572;2023-03-24T05:30:48;92977.09;;;27.22;25.75
74336;BME280;62755;-33.398;-70.572;2023-03-24T05:33:39;92976.25;;;27.27;25.59
74336;BME280;62755;-33.398;-70.572;2023-03-24T05:36:28;92975.81;;;27.23;25.80
74336;BME280;62755;-33.398;-70.572;2023-03-24T05:39:17;92977.72;;;27.34;26.48
74336;BME280;62755;-33.398;-70.572;2023-03-24T05:42:07;92969.78;;;27.06;26.58
74336;BME280;62755;-33.398;-70.572;2023-03-24T05:44:56;92967.50;;;26.86;27.07
74336;BME280;62755;-33.398;-70.572;2023-03-24T05:47:46;92944.66;;;26.91;26.82
74336;BME280;62755;-33.398;-70.572;2023-03-24T05:50:37;92956.19;;;26.89;26.47
74336;BME280;62755;-33.398;-70.572;2023-03-24T05:53:26;92949.94;;;26.89;27.13
74336;BME280;62755;-33.398;-70.572;2023-03-24T05:56:16;92957.84;;;26.98;26.68
74336;BME280;62755;-33.398;-70.572;2023-03-24T05:59:05;92954.19;;;26.66;27.65
74336;BME280;62755;-33.398;-70.572;2023-03-24T06:01:54;92946.47;;;26.64;27.23
74336;BME280;62755;-33.398;-70.572;2023-03-24T06:04:44;92949.28;;;26.59;27.80
74336;BME280;62755;-33.398;-70.572;2023-03-24T06:07:38;92948.25;;;26.62;27.73
74336;BME280;62755;-33.398;-70.572;2023-03-24T06:10:28;92946.47;;;26.40;28.22
74336;BME280;62755;-33.398;-70.572;2023-03-24T06:13:19;92944.00;;;26.61;27.60
74336;BME280;62755;-33.398;-70.572;2023-03-24T06:16:08;92939.69;;;26.71;27.41
74336;BME280;62755;-33.398;-70.572;2023-03-24T06:18:58;92935.13;;;26.25;28.23
74336;BME280;62755;-33.398;-70.572;2023-03-24T06:21:47;92939.88;;;26.25;28.23
74336;BME280;62755;-33.398;-70.572;2023-03-24T06:24:39;92944.59;;;26.30;28.38
74336;BME280;62755;-33.398;-70.572;2023-03-24T06:27:28;92942.28;;;26.58;28.13
74336;BME280;62755;-33.398;-70.572;2023-03-24T06:30:21;92934.63;;;26.75;27.69
74336;BME280;62755;-33.398;-70.572;2023-03-24T06:33:10;92934.03;;;26.82;28.63
74336;BME280;62755;-33.398;-70.572;2023-03-24T06:36:00;92939.38;;;26.74;27.81
74336;BME280;62755;-33.398;-70.572;2023-03-24T06:38:50;92926.22;;;26.62;27.83
74336;BME280;62755;-33.398;-70.572;2023-03-24T06:41:41;92933.69;;;26.67;27.96
74336;BME280;62755;-33.398;-70.572;2023-03-24T06:44:30;92932.41;;;26.68;28.15
74336;BME280;62755;-33.398;-70.572;2023-03-24T06:47:19;92932.41;;;26.68;27.98
74336;BME280;62755;-33.398;-70.572;2023-03-24T06:50:09;92920.16;;;26.69;27.64
74336;BME280;62755;-33.398;-70.572;2023-03-24T06:52:58;92919.59;;;26.52;27.96
74336;BME280;62755;-33.398;-70.572;2023-03-24T06:55:48;92925.16;;;26.46;27.73
74336;BME280;62755;-33.398;-70.572;2023-03-24T06:58:39;92933.16;;;26.20;28.17
74336;BME280;62755;-33.398;-70.572;2023-03-24T07:01:28;92919.88;;;26.24;28.23
74336;BME280;62755;-33.398;-70.572;2023-03-24T07:04:18;92934.94;;;26.42;27.86
74336;BME280;62755;-33.398;-70.572;2023-03-24T07:07:07;92929.03;;;26.56;27.72
74336;BME280;62755;-33.398;-70.572;2023-03-24T07:09:58;92931.28;;;26.58;27.41
74336;BME280;62755;-33.398;-70.572;2023-03-24T07:12:47;92938.63;;;26.50;27.19
74336;BME280;62755;-33.398;-70.572;2023-03-24T07:15:38;92941.38;;;26.50;27.99
74336;BME280;62755;-33.398;-70.572;2023-03-24T07:18:27;92939.13;;;26.48;28.35
74336;BME280;62755;-33.398;-70.572;2023-03-24T07:21:17;92937.47;;;26.40;28.44
74336;BME280;62755;-33.398;-70.572;2023-03-24T07:24:06;92925.28;;;26.35;27.97
74336;BME280;62755;-33.398;-70.572;2023-03-24T07:26:56;92933.19;;;26.44;28.78
74336;BME280;62755;-33.398;-70.572;2023-03-24T07:29:45;92933.84;;;26.26;28.21
74336;BME280;62755;-33.398;-70.572;2023-03-24T07:32:36;92938.50;;;26.37;28.28
74336;BME280;62755;-33.398;-70.572;2023-03-24T07:35:26;92937.75;;;26.36;27.53
74336;BME280;62755;-33.398;-70.572;2023-03-24T07:38:15;92929.56;;;26.31;26.93
74336;BME280;62755;-33.398;-70.572;2023-03-24T07:41:05;92926.13;;;26.25;27.02
74336;BME280;62755;-33.398;-70.572;2023-03-24T07:43:54;92925.19;;;25.87;27.17
74336;BME280;62755;-33.398;-70.572;2023-03-24T07:46:43;92933.03;;;25.77;27.22
74336;BME280;62755;-33.398;-70.572;2023-03-24T07:49:35;92930.56;;;25.74;27.60
74336;BME280;62755;-33.398;-70.572;2023-03-24T07:52:24;92929.47;;;25.53;27.41
74336;BME280;62755;-33.398;-70.572;2023-03-24T07:55:13;92931.22;;;25.50;28.08
74336;BME280;62755;-33.398;-70.572;2023-03-24T07:58:03;92938.16;;;25.62;27.89
74336;BME280;62755;-33.398;-70.572;2023-03-24T08:00:52;92929.66;;;25.60;28.25
74336;BME280;62755;-33.398;-70.572;2023-03-24T08:03:42;92929.19;;;25.56;28.54
74336;BME280;62755;-33.398;-70.572;2023-03-24T08:06:33;92930.47;;;25.50;27.94
74336;BME280;62755;-33.398;-70.572;2023-03-24T08:09:22;92916.72;;;25.55;28.01
74336;BME280;62755;-33.398;-70.572;2023-03-24T08:12:12;92920.31;;;25.74;27.96
74336;BME280;62755;-33.398;-70.572;2023-03-24T08:15:01;92894.97;;;25.57;28.12
74336;BME280;62755;-33.398;-70.572;2023-03-24T08:17:51;92914.13;;;25.68;27.99
74336;BME280;62755;-33.398;-70.572;2023-03-24T08:20:47;92912.16;;;25.63;28.42
74336;BME280;62755;-33.398;-70.572;2023-03-24T08:23:44;92922.63;;;25.24;28.59
74336;BME280;62755;-33.398;-70.572;2023-03-24T08:26:34;92922.81;;;25.37;28.94
74336;BME280;62755;-33.398;-70.572;2023-03-24T08:29:23;92922.81;;;25.37;29.19
74336;BME280;62755;-33.398;-70.572;2023-03-24T08:32:12;92920.25;;;25.50;28.70
74336;BME280;62755;-33.398;-70.572;2023-03-24T08:35:01;92925.47;;;25.54;28.71
74336;BME280;62755;-33.398;-70.572;2023-03-24T08:37:51;92923.69;;;25.56;28.80
74336;BME280;62755;-33.398;-70.572;2023-03-24T08:40:42;92919.16;;;25.64;28.46
74336;BME280;62755;-33.398;-70.572;2023-03-24T08:43:33;92920.16;;;25.61;28.15
74336;BME280;62755;-33.398;-70.572;2023-03-24T08:46:22;92932.09;;;25.69;28.03
74336;BME280;62755;-33.398;-70.572;2023-03-24T08:49:11;92930.56;;;25.74;27.97
74336;BME280;62755;-33.398;-70.572;2023-03-24T08:52:01;92915.69;;;25.58;28.49
74336;BME280;62755;-33.398;-70.572;2023-03-24T08:54:50;92935.06;;;25.71;28.85
74336;BME280;62755;-33.398;-70.572;2023-03-24T08:57:41;92941.97;;;25.48;27.86
74336;BME280;62755;-33.398;-70.572;2023-03-24T09:00:30;92938.34;;;25.29;28.77
74336;BME280;62755;-33.398;-70.572;2023-03-24T09:03:20;92943.88;;;25.23;28.84
74336;BME280;62755;-33.398;-70.572;2023-03-24T09:06:09;92935.97;;;25.09;28.89
74336;BME280;62755;-33.398;-70.572;2023-03-24T09:08:59;92945.91;;;25.12;28.76
74336;BME280;62755;-33.398;-70.572;2023-03-24T09:11:48;92953.84;;;25.21;29.35
74336;BME280;62755;-33.398;-70.572;2023-03-24T09:14:39;92959.88;;;25.14;29.19
74336;BME280;62755;-33.398;-70.572;2023-03-24T09:17:28;92959.69;;;25.01;28.62
74336;BME280;62755;-33.398;-70.572;2023-03-24T09:20:18;92961.00;;;24.89;28.91
74336;BME280;62755;-33.398;-70.572;2023-03-24T09:23:08;92965.47;;;24.92;28.99
74336;BME280;62755;-33.398;-70.572;2023-03-24T09:25:57;92965.00;;;24.88;29.65
74336;BME280;62755;-33.398;-70.572;2023-03-24T09:28:47;92975.41;;;25.06;29.70
74336;BME280;62755;-33.398;-70.572;2023-03-24T09:31:38;92975.16;;;25.04;29.63
74336;BME280;62755;-33.398;-70.572;2023-03-24T09:34:27;92978.84;;;25.12;29.41
74336;BME280;62755;-33.398;-70.572;2023-03-24T09:37:18;92982.44;;;24.96;29.67
74336;BME280;62755;-33.398;-70.572;2023-03-24T09:40:09;92987.91;;;24.96;29.70
74336;BME280;62755;-33.398;-70.572;2023-03-24T09:43:06;92991.44;;;24.85;28.73
74336;BME280;62755;-33.398;-70.572;2023-03-24T09:45:58;92978.25;;;24.73;28.72
74336;BME280;62755;-33.398;-70.572;2023-03-24T09:48:53;92984.19;;;24.88;28.13
74336;BME280;62755;-33.398;-70.572;2023-03-24T09:51:44;92978.91;;;25.01;28.28
74336;BME280;62755;-33.398;-70.572;2023-03-24T09:54:41;92980.66;;;25.04;28.48
74336;BME280;62755;-33.398;-70.572;2023-03-24T09:57:36;92982.44;;;24.90;28.64
74336;BME280;62755;-33.398;-70.572;2023-03-24T10:00:28;92972.03;;;24.78;29.06
74336;BME280;62755;-33.398;-70.572;2023-03-24T10:03:20;92980.03;;;24.54;28.96
74336;BME280;62755;-33.398;-70.572;2023-03-24T10:06:16;92979.03;;;24.57;29.51
74336;BME280;62755;-33.398;-70.572;2023-03-24T10:09:22;92977.03;;;24.52;29.71
74336;BME280;62755;-33.398;-70.572;2023-03-24T10:12:24;92978.09;;;24.26;29.69
74336;BME280;62755;-33.398;-70.572;2023-03-24T10:15:22;92969.13;;;24.31;29.44
74336;BME280;62755;-33.398;-70.572;2023-03-24T10:18:24;92972.38;;;24.19;29.61
74336;BME280;62755;-33.398;-70.572;2023-03-24T10:21:20;92968.13;;;23.90;29.30
74336;BME280;62755;-33.398;-70.572;2023-03-24T10:24:18;92970.88;;;23.90;28.63
74336;BME280;62755;-33.398;-70.572;2023-03-24T10:27:16;92966.91;;;24.02;27.39
74336;BME280;62755;-33.398;-70.572;2023-03-24T10:30:15;92975.13;;;23.91;28.05
74336;BME280;62755;-33.398;-70.572;2023-03-24T10:33:04;92983.59;;;23.93;28.10
74336;BME280;62755;-33.398;-70.572;2023-03-24T10:35:57;92980.84;;;24.10;28.35
74336;BME280;62755;-33.398;-70.572;2023-03-24T10:38:51;92977.09;;;24.29;28.19
74336;BME280;62755;-33.398;-70.572;2023-03-24T10:41:41;92976.09;;;24.32;28.08
74336;BME280;62755;-33.398;-70.572;2023-03-24T10:44:32;92987.06;;;24.27;27.80
74336;BME280;62755;-33.398;-70.572;2023-03-24T10:47:24;92993.72;;;24.59;27.67
74336;BME280;62755;-33.398;-70.572;2023-03-24T10:50:14;92985.56;;;24.42;27.32
74336;BME280;62755;-33.398;-70.572;2023-03-24T10:53:10;92972.59;;;24.37;27.34
74336;BME280;62755;-33.398;-70.572;2023-03-24T10:56:06;92994.06;;;24.11;27.66
74336;BME280;62755;-33.398;-70.572;2023-03-24T10:58:56;92995.03;;;23.97;28.01
74336;BME280;62755;-33.398;-70.572;2023-03-24T11:01:45;92990.06;;;23.79;28.50
74336;BME280;62755;-33.398;-70.572;2023-03-24T11:04:36;92997.53;;;23.73;28.83
74336;BME280;62755;-33.398;-70.572;2023-03-24T11:07:31;92994.03;;;23.89;29.17
74336;BME280;62755;-33.398;-70.572;2023-03-24T11:10:24;92999.03;;;23.85;29.29
74336;BME280;62755;-33.398;-70.572;2023-03-24T11:13:19;93003.50;;;23.88;29.59
74336;BME280;62755;-33.398;-70.572;2023-03-24T11:16:12;92998.56;;;24.03;29.12
74336;BME280;62755;-33.398;-70.572;2023-03-24T11:19:03;92997.50;;;23.84;29.28
74336;BME280;62755;-33.398;-70.572;2023-03-24T11:21:58;92998.28;;;24.01;29.57
74336;BME280;62755;-33.398;-70.572;2023-03-24T11:24:51;92999.56;;;24.11;29.81
74336;BME280;62755;-33.398;-70.572;2023-03-24T11:27:41;92994.56;;;24.04;30.10
74336;BME280;62755;-33.398;-70.572;2023-03-24T11:30:43;93003.78;;;24.29;29.28
74336;BME280;62755;-33.398;-70.572;2023-03-24T11:33:35;93005.00;;;24.22;29.60
74336;BME280;62755;-33.398;-70.572;2023-03-24T11:36:46;93009.00;;;24.27;29.07
74336;BME280;62755;-33.398;-70.572;2023-03-24T11:39:36;93007.44;;;24.54;29.44
74336;BME280;62755;-33.398;-70.572;2023-03-24T11:42:27;93019.44;;;24.51;29.47
74336;BME280;62755;-33.398;-70.572;2023-03-24T11:45:36;93020.41;;;24.59;29.22
74336;BME280;62755;-33.398;-70.572;2023-03-24T11:48:32;93022.91;;;24.57;29.36
74336;BME280;62755;-33.398;-70.572;2023-03-24T11:51:29;93027.88;;;24.64;29.42
74336;BME280;62755;-33.398;-70.572;2023-03-24T11:54:24;93037.84;;;24.78;30.12
74336;BME280;62755;-33.398;-70.572;2023-03-24T11:57:19;93035.34;;;24.69;29.42
74336;BME280;62755;-33.398;-70.572;2023-03-24T12:00:19;93040.34;;;24.76;29.11
74336;BME280;62755;-33.398;-70.572;2023-03-24T12:06:47;93032.59;;;24.85;30.38
74336;BME280;62755;-33.398;-70.572;2023-03-24T12:09:44;93033.34;;;24.75;30.30
74336;BME280;62755;-33.398;-70.572;2023-03-24T12:12:40;93044.28;;;24.91;29.92
74336;BME280;62755;-33.398;-70.572;2023-03-24T12:15:52;93056.22;;;25.05;30.71
74336;BME280;62755;-33.398;-70.572;2023-03-24T12:18:54;93054.66;;;25.20;30.31
74336;BME280;62755;-33.398;-70.572;2023-03-24T12:21:55;93067.13;;;25.27;30.14
74336;BME280;62755;-33.398;-70.572;2023-03-24T12:25:06;93065.41;;;25.18;30.26
74336;BME280;62755;-33.398;-70.572;2023-03-24T12:28:12;93067.44;;;25.07;30.45
74336;BME280;62755;-33.398;-70.572;2023-03-24T12:31:18;93073.69;;;25.02;30.32
74336;BME280;62755;-33.398;-70.572;2023-03-24T12:34:34;93063.69;;;25.10;30.66
74336;BME280;62755;-33.398;-70.572;2023-03-24T12:37:33;93070.66;;;25.11;31.28
74336;BME280;62755;-33.398;-70.572;2023-03-24T12:44:06;93059.75;;;25.00;30.15
74336;BME280;62755;-33.398;-70.572;2023-03-24T12:47:06;93066.25;;;24.86;30.87
74336;BME280;62755;-33.398;-70.572;2023-03-24T12:50:08;93067.47;;;24.90;30.47
74336;BME280;62755;-33.398;-70.572;2023-03-24T12:53:19;93055.03;;;24.84;30.84
74336;BME280;62755;-33.398;-70.572;2023-03-24T12:56:16;93060.25;;;24.93;30.36
74336;BME280;62755;-33.398;-70.572;2023-03-24T12:59:09;93057.53;;;24.87;29.81
74336;BME280;62755;-33.398;-70.572;2023-03-24T13:02:11;93077.41;;;25.15;29.91
74336;BME280;62755;-33.398;-70.572;2023-03-24T13:05:13;93078.38;;;25.18;29.77
74336;BME280;62755;-33.398;-70.572;2023-03-24T13:08:04;93074.09;;;25.28;29.40
74336;BME280;62755;-33.398;-70.572;2023-03-24T13:11:05;93083.38;;;25.19;29.46
74336;BME280;62755;-33.398;-70.572;2023-03-24T13:13:57;93089.38;;;25.12;29.99
74336;BME280;62755;-33.398;-70.572;2023-03-24T13:16:49;93092.63;;;25.11;29.80
74336;BME280;62755;-33.398;-70.572;2023-03-24T13:19:39;93085.06;;;25.28;29.75
74336;BME280;62755;-33.398;-70.572;2023-03-24T13:22:30;93089.03;;;25.38;29.25
74336;BME280;62755;-33.398;-70.572;2023-03-24T13:25:28;93079.06;;;25.35;29.36
74336;BME280;62755;-33.398;-70.572;2023-03-24T13:28:24;93064.34;;;25.33;28.94
74336;BME280;62755;-33.398;-70.572;2023-03-24T13:31:16;93091.06;;;25.43;28.57
74336;BME280;62755;-33.398;-70.572;2023-03-24T13:34:19;93086.78;;;25.48;29.09
74336;BME280;62755;-33.398;-70.572;2023-03-24T13:37:13;93064.06;;;25.36;28.99
74336;BME280;62755;-33.398;-70.572;2023-03-24T13:40:08;93097.38;;;25.73;28.86
74336;BME280;62755;-33.398;-70.572;2023-03-24T13:42:59;93103.63;;;25.74;28.40
74336;BME280;62755;-33.398;-70.572;2023-03-24T13:46:00;93102.38;;;25.69;28.56
74336;BME280;62755;-33.398;-70.572;2023-03-24T13:48:51;93103.91;;;25.70;28.67
74336;BME280;62755;-33.398;-70.572;2023-03-24T13:51:44;93110.34;;;25.78;28.54
74336;BME280;62755;-33.398;-70.572;2023-03-24T13:54:36;93111.13;;;25.73;28.69
74336;BME280;62755;-33.398;-70.572;2023-03-24T13:57:25;93117.31;;;25.79;28.94
74336;BME280;62755;-33.398;-70.572;2023-03-24T14:00:20;93116.81;;;25.86;29.19
74336;BME280;62755;-33.398;-70.572;2023-03-24T14:03:31;93125.72;;;25.98;28.74
74336;BME280;62755;-33.398;-70.572;2023-03-24T14:06:44;93119.78;;;25.88;28.20
74336;BME280;62755;-33.398;-70.572;2023-03-24T14:09:34;93125.22;;;25.99;28.08
74336;BME280;62755;-33.398;-70.572;2023-03-24T14:12:52;93124.25;;;25.91;28.13
74336;BME280;62755;-33.398;-70.572;2023-03-24T14:15:44;93125.81;;;25.81;28.22
74336;BME280;62755;-33.398;-70.572;2023-03-24T14:18:41;93124.19;;;26.02;28.78
74336;BME280;62755;-33.398;-70.572;2023-03-24T14:21:33;93128.16;;;26.13;28.69
74336;BME280;62755;-33.398;-70.572;2023-03-24T14:24:29;93122.31;;;26.27;28.86
74336;BME280;62755;-33.398;-70.572;2023-03-24T14:27:29;93131.16;;;26.15;28.41
74336;BME280;62755;-33.398;-70.572;2023-03-24T14:30:22;93130.53;;;26.33;28.19
74336;BME280;62755;-33.398;-70.572;2023-03-24T14:33:23;93127.53;;;26.31;27.96
74336;BME280;62755;-33.398;-70.572;2023-03-24T14:36:18;93125.69;;;26.44;27.70
74336;BME280;62755;-33.398;-70.572;2023-03-24T14:39:19;93129.66;;;26.49;28.40
74336;BME280;62755;-33.398;-70.572;2023-03-24T14:42:52;93127.22;;;26.75;27.66
74336;BME280;62755;-33.398;-70.572;2023-03-24T14:45:58;93126.00;;;27.00;27.38
74336;BME280;62755;-33.398;-70.572;2023-03-24T14:48:55;93126.00;;;27.00;27.11
74336;BME280;62755;-33.398;-70.572;2023-03-24T14:51:58;93117.28;;;27.20;27.21
74336;BME280;62755;-33.398;-70.572;2023-03-24T14:55:03;93122.00;;;27.49;26.18
74336;BME280;62755;-33.398;-70.572;2023-03-24T14:57:55;93128.91;;;27.56;25.99
74336;BME280;62755;-33.398;-70.572;2023-03-24T15:00:50;93123.06;;;27.83;26.24
74336;BME280;62755;-33.398;-70.572;2023-03-24T15:03:47;93126.38;;;28.01;25.68
74336;BME280;62755;-33.398;-70.572;2023-03-24T15:06:45;93125.13;;;28.52;25.04